Pagrindinis puslapis
METAR-TAF:

METAR-TAF

Oro uostai :

Igvasu, Argentina

platuma: 25-44S, ilguma: 054-28W, Aukštis: 270 m

Dabartinis oras

Ataskaita buvo paskelbta 54 minutes, ne 15:00 UTC
Vėjas 7 kt iš Šiaurės Rytų
Temperatūra 31°C
Drėgmė 52%
Slėgis 1011 hPa
Matomumas 10 km arba daugiau
nėra debesų žemiau 1500 m ir nėra kamuolinių lietaus debesų

METAR: SARI 151500Z 05007KT CAVOK 31/20 Q1011

Laikas: 12:54 (15:54 UTC)

Prognozė

Ataskaita buvo paskelbta 4 valandos ir 54 minutes, ne 11:00 UTC
Prognozė galioja nuo 15 metu 12 UTC su 16 metu 12 UTC
Vėjas 5 kt iš Šiaurės Rytų
Matomumas 10 km arba daugiau
nėra debesų žemiau 1500 m ir nėra kamuolinių lietaus debesų
Tapsmas
nuo 15 metu 13 UTC su 15 metu 14 UTC
Vėjas 10 kt iš Šiaurės Rytų
Matomumas 10 km arba daugiau
Mažai debesys ne aukštis 3500 ft

TAF: SARI 151100Z 1512/1612 05005KT CAVOK TX34/1518Z TN18/1610Z BECMG 1513/1514 05010KT 9999 FEW035

Orai ataskaitas ir orų prognozės (METAR, TAF).

turimą stotys yra geltonos ir raudonos taškus žemėlapyje.

Perkelti pele per norėdami pamatyti stoties vardą.

Tada spustelėkite, norėdami matyti oro stebėjimo ir prognozės.

Norėdami pakeisti žemėlapį: spustelėkite ant žalios mygtukų su juodo kryžiaus žemyn,; žalią mygtuką su brūkšneliu, jei norite nutolinti; arba žalių rodyklių gretimoms žemėlapius.


METAR-TAF: